createdAt,value
2022-08-10T00:01:02.387Z,36.66
2022-08-10T00:03:29.113Z,37.84
2022-08-10T00:05:55.750Z,36.84
2022-08-10T00:08:24.065Z,36.85
2022-08-10T00:10:51.065Z,36.65
2022-08-10T00:13:17.872Z,36.42
2022-08-10T00:15:53.755Z,36.88
2022-08-10T00:18:35.106Z,36.74
2022-08-10T00:21:02.519Z,37.30
2022-08-10T00:23:29.074Z,36.59
2022-08-10T00:25:55.497Z,36.29
2022-08-10T00:28:21.901Z,36.76
2022-08-10T00:30:48.469Z,35.48
2022-08-10T00:33:14.929Z,34.88
2022-08-10T00:35:41.385Z,35.97
2022-08-10T00:38:08.085Z,36.22
2022-08-10T00:40:37.519Z,36.10
2022-08-10T00:43:04.810Z,36.18
2022-08-10T00:45:31.353Z,37.58
2022-08-10T00:47:57.824Z,37.37
2022-08-10T00:50:24.471Z,37.21
2022-08-10T00:52:50.898Z,36.43
2022-08-10T00:55:17.285Z,36.75
2022-08-10T00:57:43.810Z,36.20
2022-08-10T01:00:10.380Z,36.01
2022-08-10T01:02:37.099Z,36.77
2022-08-10T01:05:03.713Z,35.79
2022-08-10T01:07:30.345Z,35.66
2022-08-10T01:09:57.387Z,35.74
2022-08-10T01:12:41.052Z,36.82
2022-08-10T01:15:08.098Z,35.89
2022-08-10T01:17:50.368Z,35.02
2022-08-10T01:20:27.337Z,34.56
2022-08-10T01:22:57.629Z,34.67
2022-08-10T01:25:24.163Z,35.71
2022-08-10T01:27:50.803Z,36.74
2022-08-10T01:30:17.251Z,36.36
2022-08-10T01:32:43.784Z,35.57
2022-08-10T01:35:10.209Z,34.61
2022-08-10T01:37:36.687Z,34.80
2022-08-10T01:40:03.788Z,34.68
2022-08-10T01:42:30.403Z,35.06
2022-08-10T01:44:56.822Z,36.11
2022-08-10T01:47:23.564Z,35.94
2022-08-10T01:49:50.080Z,35.53
2022-08-10T01:52:18.063Z,35.38
2022-08-10T01:54:44.806Z,35.17
2022-08-10T01:57:11.222Z,34.66
2022-08-10T01:59:37.673Z,34.75
2022-08-10T02:02:04.225Z,36.82
2022-08-10T02:04:30.655Z,35.43
2022-08-10T02:06:57.266Z,36.98
2022-08-10T02:09:23.798Z,36.74
2022-08-10T02:11:55.966Z,37.54
2022-08-10T02:14:34.751Z,36.26
2022-08-10T02:17:01.344Z,35.06
2022-08-10T02:19:27.773Z,35.22
2022-08-10T02:22:35.887Z,36.49
2022-08-10T02:24:40.805Z,36.47
2022-08-10T02:27:07.251Z,36.00
2022-08-10T02:29:33.682Z,37.20
2022-08-10T02:32:00.114Z,37.19
2022-08-10T02:34:26.690Z,36.93
2022-08-10T02:36:54.859Z,36.44
2022-08-10T02:39:23.725Z,35.63
2022-08-10T02:45:14.005Z,35.06
2022-08-10T02:45:24.426Z,35.13
2022-08-10T02:47:23.171Z,34.92
2022-08-10T02:49:49.601Z,34.66
2022-08-10T02:52:15.985Z,34.35
2022-08-10T02:54:42.585Z,34.56
2022-08-10T02:57:08.999Z,34.72
2022-08-10T02:59:39.990Z,34.15
2022-08-10T03:02:06.950Z,34.34
2022-08-10T03:04:56.250Z,34.77
2022-08-10T03:07:42.793Z,34.62
2022-08-10T03:10:13.174Z,35.77
2022-08-10T03:12:41.620Z,35.69
2022-08-10T03:15:08.066Z,35.65
2022-08-10T03:17:41.713Z,34.98
2022-08-10T03:20:37.374Z,35.61
2022-08-10T03:23:05.910Z,36.13
2022-08-10T03:25:32.438Z,37.28
2022-08-10T03:28:00.922Z,36.70
2022-08-10T03:30:32.622Z,36.97
2022-08-10T03:33:01.850Z,36.69
2022-08-10T03:35:28.267Z,36.28
2022-08-10T03:37:59.501Z,36.31
2022-08-10T03:40:45.752Z,37.09
2022-08-10T03:43:13.253Z,37.57
2022-08-10T03:45:54.549Z,36.91
2022-08-10T03:48:22.578Z,36.56
2022-08-10T03:50:52.036Z,37.32
2022-08-10T03:54:02.423Z,38.58
2022-08-10T03:56:29.665Z,38.53
2022-08-10T03:58:51.881Z,38.18
2022-08-10T04:01:18.483Z,38.80
2022-08-10T04:03:44.932Z,38.74
2022-08-10T04:06:11.365Z,38.43
2022-08-10T04:08:38.080Z,38.10
2022-08-10T04:11:04.481Z,38.95
2022-08-10T04:13:30.892Z,38.75
2022-08-10T04:15:57.596Z,38.26
2022-08-10T04:18:23.998Z,39.22
2022-08-10T04:20:50.366Z,39.22
2022-08-10T04:23:17.094Z,38.08
2022-08-10T04:25:43.574Z,37.59
2022-08-10T04:28:10.006Z,37.94
2022-08-10T04:30:36.736Z,37.61
2022-08-10T04:33:03.191Z,37.49
2022-08-10T04:35:29.656Z,37.07
2022-08-10T04:37:56.195Z,36.98
2022-08-10T04:40:28.729Z,37.78
2022-08-10T04:43:02.126Z,38.03
2022-08-10T04:45:49.651Z,37.46
2022-08-10T04:48:43.166Z,37.08
2022-08-10T04:51:04.047Z,37.51
2022-08-10T04:53:30.897Z,37.53
2022-08-10T04:55:57.336Z,36.76
2022-08-10T04:58:23.860Z,36.60
2022-08-10T05:00:50.512Z,36.78
2022-08-10T05:03:16.977Z,36.08
2022-08-10T05:05:43.359Z,36.47
2022-08-10T05:08:10.034Z,35.82
2022-08-10T05:10:36.502Z,35.56
2022-08-10T05:13:02.991Z,35.68
2022-08-10T05:15:29.550Z,35.70
2022-08-10T05:18:08.361Z,35.43
2022-08-10T05:20:36.338Z,35.59
2022-08-10T05:23:02.775Z,35.27
2022-08-10T05:25:29.205Z,35.40
2022-08-10T05:28:03.093Z,35.03
2022-08-10T05:30:32.557Z,35.73
2022-08-10T05:33:01.798Z,37.11
2022-08-10T05:35:56.254Z,36.77
2022-08-10T05:38:21.002Z,36.79
2022-08-10T05:40:48.373Z,36.73
2022-08-10T05:43:14.926Z,35.86
2022-08-10T05:46:19.567Z,35.34
2022-08-10T05:48:42.151Z,35.34
2022-08-10T05:51:16.659Z,34.96
2022-08-10T05:54:01.649Z,34.47
2022-08-10T05:56:55.063Z,34.38
2022-08-10T06:00:31.185Z,34.34
2022-08-10T06:02:31.057Z,34.94
2022-08-10T06:04:52.219Z,35.30
2022-08-10T06:07:21.624Z,34.75
2022-08-10T06:09:58.929Z,35.35
2022-08-10T06:12:29.812Z,34.34
2022-08-10T06:15:00.024Z,34.03
2022-08-10T06:17:26.589Z,33.90
2022-08-10T06:19:52.976Z,33.52
2022-08-10T06:22:19.476Z,33.50
2022-08-10T06:25:12.265Z,33.11
2022-08-10T06:27:34.508Z,34.21
2022-08-10T06:30:01.447Z,33.91
2022-08-10T06:32:27.870Z,33.26
2022-08-10T06:34:54.243Z,33.13
2022-08-10T06:37:20.989Z,33.54
2022-08-10T06:39:47.487Z,33.66
2022-08-10T06:42:16.352Z,33.29
2022-08-10T06:44:44.297Z,33.12
2022-08-10T06:47:10.741Z,33.62
2022-08-10T06:49:39.316Z,33.49
2022-08-10T06:52:05.853Z,34.16
2022-08-10T06:54:32.233Z,34.94
2022-08-10T06:57:17.412Z,34.71
2022-08-10T06:59:44.809Z,34.19
2022-08-10T07:02:11.218Z,35.57
2022-08-10T07:04:37.633Z,35.91
2022-08-10T07:07:04.406Z,35.10
2022-08-10T07:09:31.049Z,34.49
2022-08-10T07:11:57.424Z,33.43
2022-08-10T07:14:33.870Z,32.96
2022-08-10T07:17:00.266Z,32.99
2022-08-10T07:19:26.635Z,34.13
2022-08-10T07:21:53.264Z,34.42
2022-08-10T07:24:24.553Z,34.82
2022-08-10T07:26:50.958Z,35.58
2022-08-10T07:29:26.439Z,36.14
2022-08-10T07:32:04.165Z,35.52
2022-08-10T07:34:30.679Z,35.58
2022-08-10T07:36:57.119Z,34.77
2022-08-10T07:40:02.305Z,34.08
2022-08-10T07:42:10.005Z,34.83
2022-08-10T07:44:36.407Z,34.33
2022-08-10T07:47:02.774Z,34.55
2022-08-10T07:49:29.308Z,33.99
2022-08-10T07:51:55.806Z,34.37
2022-08-10T07:54:22.214Z,33.69
2022-08-10T07:56:49.583Z,34.42
2022-08-10T07:59:16.073Z,34.35
2022-08-10T08:01:42.532Z,34.42
2022-08-10T08:04:11.786Z,34.20
2022-08-10T08:06:38.539Z,34.23
2022-08-10T08:09:04.960Z,32.45
2022-08-10T08:11:31.515Z,32.39
2022-08-10T08:13:58.120Z,32.73
2022-08-10T08:16:24.550Z,32.53
2022-08-10T08:19:16.508Z,32.75
2022-08-10T08:24:13.684Z,34.18
2022-08-10T08:24:33.054Z,33.76
2022-08-10T08:27:00.220Z,33.13
2022-08-10T08:29:26.865Z,32.93
2022-08-10T08:31:54.551Z,33.62
2022-08-10T08:34:28.807Z,32.80
2022-08-10T08:36:59.357Z,32.24
2022-08-10T08:39:26.358Z,31.71
2022-08-10T08:41:53.020Z,32.23
2022-08-10T08:44:19.451Z,31.50
2022-08-10T08:46:45.881Z,31.24
2022-08-10T08:49:12.415Z,31.30
2022-08-10T08:52:09.968Z,30.84
2022-08-10T08:54:45.033Z,30.67
2022-08-10T08:57:11.430Z,29.69
2022-08-10T08:59:37.864Z,31.08
2022-08-10T09:02:04.562Z,32.01
2022-08-10T09:04:30.970Z,31.52
2022-08-10T09:06:57.391Z,32.07
2022-08-10T09:09:23.912Z,30.19
2022-08-10T09:11:50.318Z,29.69
2022-08-10T09:14:16.726Z,28.09
2022-08-10T09:16:51.895Z,28.91
2022-08-10T09:19:19.435Z,28.65
2022-08-10T09:22:17.464Z,28.65
2022-08-10T09:24:45.454Z,28.89
2022-08-10T09:27:11.970Z,28.99
2022-08-10T09:29:38.352Z,29.00
2022-08-10T09:35:39.203Z,28.89
2022-08-10T09:36:29.730Z,28.19
2022-08-10T09:37:58.631Z,27.59
2022-08-10T09:40:59.767Z,28.85
2022-08-10T09:43:24.917Z,29.07
2022-08-10T09:45:53.018Z,28.65
2022-08-10T09:48:19.453Z,28.16
2022-08-10T09:53:32.264Z,28.86
2022-08-10T09:56:18.248Z,28.45
2022-08-10T09:58:45.218Z,28.40
2022-08-10T10:01:52.866Z,27.53
2022-08-10T10:04:00.820Z,27.87
2022-08-10T10:06:27.224Z,26.98
2022-08-10T10:08:58.306Z,28.26
2022-08-10T10:11:36.405Z,27.31
2022-08-10T10:14:06.421Z,27.78
2022-08-10T10:16:34.648Z,28.17
2022-08-10T10:19:01.333Z,27.27
2022-08-10T10:21:54.464Z,29.07
2022-08-10T10:24:20.364Z,29.14
2022-08-10T10:26:48.885Z,29.39
2022-08-10T10:29:44.810Z,27.73
2022-08-10T10:32:01.813Z,27.82
2022-08-10T10:34:28.352Z,26.82
2022-08-10T10:36:54.738Z,27.24
2022-08-10T10:39:24.043Z,28.20
2022-08-10T10:44:42.402Z,27.75
2022-08-10T10:47:08.978Z,27.58
2022-08-10T10:49:35.379Z,28.11
2022-08-10T10:52:02.238Z,25.62
2022-08-10T10:54:29.191Z,26.92
2022-08-10T10:56:55.796Z,26.96
2022-08-10T10:59:53.947Z,27.32
2022-08-10T11:02:08.768Z,27.10
2022-08-10T11:04:35.319Z,26.37
2022-08-10T11:07:01.732Z,28.39
2022-08-10T11:10:04.855Z,27.53
2022-08-10T11:12:19.729Z,27.22
2022-08-10T11:14:51.762Z,26.15
2022-08-10T11:17:18.165Z,27.19
2022-08-10T11:20:00.238Z,27.54
2022-08-10T11:22:30.171Z,27.45
2022-08-10T11:25:05.680Z,27.74
2022-08-10T11:27:32.167Z,27.21
2022-08-10T11:29:58.616Z,29.28
2022-08-10T11:32:27.193Z,28.38
2022-08-10T11:35:10.310Z,28.10
2022-08-10T11:38:28.657Z,27.08
2022-08-10T11:40:25.425Z,27.10
2022-08-10T11:45:52.001Z,25.34
2022-08-10T11:48:53.854Z,24.67
2022-08-10T11:51:07.106Z,24.96
2022-08-10T11:53:39.157Z,25.23
2022-08-10T11:56:10.951Z,24.69
2022-08-10T11:58:38.451Z,25.37
2022-08-10T12:01:04.865Z,25.61
2022-08-10T12:03:34.608Z,25.93
2022-08-10T12:06:01.605Z,25.21
2022-08-10T12:10:10.417Z,24.70
2022-08-10T12:11:18.162Z,24.82
2022-08-10T12:14:17.733Z,24.98
2022-08-10T12:16:37.730Z,26.70
2022-08-10T12:19:04.112Z,26.82
2022-08-10T12:21:30.463Z,25.56
2022-08-10T12:24:02.832Z,25.55
2022-08-10T12:26:29.935Z,25.33
2022-08-10T12:28:56.329Z,23.99
2022-08-10T12:31:22.862Z,24.78
2022-08-10T12:34:01.895Z,24.21
2022-08-10T12:36:29.738Z,24.62
2022-08-10T12:38:56.156Z,25.27
2022-08-10T12:41:41.553Z,24.82
2022-08-10T12:44:10.439Z,24.15
2022-08-10T12:46:36.985Z,24.08
2022-08-10T12:49:03.386Z,23.86
2022-08-10T12:51:29.810Z,24.02
2022-08-10T12:53:56.235Z,24.50
2022-08-10T12:56:22.654Z,24.50
2022-08-10T12:58:57.772Z,24.56
2022-08-10T13:01:27.566Z,24.22
2022-08-10T13:04:21.794Z,24.58
2022-08-10T13:06:50.686Z,23.82
2022-08-10T13:09:17.255Z,24.44
2022-08-10T13:12:44.562Z,22.49
2022-08-10T13:14:30.378Z,24.35
2022-08-10T13:16:56.874Z,24.37
2022-08-10T13:19:23.294Z,23.56
2022-08-10T13:21:49.800Z,24.80
2022-08-10T13:24:16.259Z,24.52
2022-08-10T13:26:49.564Z,25.01
2022-08-10T13:29:33.246Z,23.62
2022-08-10T13:32:10.067Z,24.63
2022-08-10T13:34:43.748Z,24.99
2022-08-10T13:37:11.228Z,24.58
2022-08-10T13:39:59.483Z,23.69
2022-08-10T13:42:31.724Z,25.97
2022-08-10T13:44:58.673Z,24.70
2022-08-10T13:47:25.102Z,24.61
2022-08-10T13:49:51.527Z,23.49
2022-08-10T13:52:18.273Z,23.57
2022-08-10T13:54:44.691Z,23.13
2022-08-10T13:57:11.087Z,22.62
2022-08-10T14:00:35.579Z,22.84
2022-08-10T14:02:24.121Z,23.88
2022-08-10T14:04:50.634Z,24.35
2022-08-10T14:07:17.098Z,24.94
2022-08-10T14:09:43.489Z,24.94
2022-08-10T14:12:10.000Z,23.23
2022-08-10T14:14:36.439Z,23.89
2022-08-10T14:17:02.829Z,22.44
2022-08-10T14:19:29.349Z,23.07
2022-08-10T14:21:55.759Z,21.43
2022-08-10T14:24:22.190Z,21.77
2022-08-10T14:26:48.872Z,22.03
2022-08-10T14:29:18.907Z,21.45
2022-08-10T14:32:01.883Z,21.26
2022-08-10T14:36:16.226Z,21.21
2022-08-10T14:37:15.488Z,20.74
2022-08-10T14:39:42.139Z,20.37
2022-08-10T14:42:20.091Z,20.63
2022-08-10T14:44:52.316Z,20.19
2022-08-10T14:47:53.717Z,19.41
2022-08-10T14:50:05.179Z,20.88
2022-08-10T14:52:31.581Z,20.85
2022-08-10T14:54:58.107Z,19.50
2022-08-10T14:58:16.374Z,20.20
2022-08-10T15:00:29.391Z,21.31
2022-08-10T15:02:58.461Z,21.00
2022-08-10T15:05:24.910Z,21.08
2022-08-10T15:08:06.642Z,20.88
2022-08-10T15:10:33.133Z,21.16
2022-08-10T15:12:59.545Z,22.31
2022-08-10T15:15:27.874Z,21.97
2022-08-10T15:17:55.073Z,21.93
2022-08-10T15:20:23.911Z,19.77
2022-08-10T15:22:50.874Z,20.62
2022-08-10T15:25:18.970Z,20.79
2022-08-10T15:27:54.804Z,20.52
2022-08-10T15:30:22.003Z,21.69
2022-08-10T15:32:48.394Z,22.84
2022-08-10T15:35:17.249Z,22.09
2022-08-10T15:37:44.397Z,21.23
2022-08-10T15:40:21.894Z,20.33
2022-08-10T15:42:53.281Z,21.19
2022-08-10T15:45:19.659Z,20.58
2022-08-10T15:47:46.867Z,21.19
2022-08-10T15:50:13.523Z,21.07
2022-08-10T15:53:01.373Z,20.70
2022-08-10T15:55:44.177Z,22.09
2022-08-10T15:58:12.193Z,22.52
2022-08-10T16:00:38.766Z,21.89
2022-08-10T16:03:05.147Z,21.36
2022-08-10T16:06:00.748Z,20.16
2022-08-10T16:08:22.065Z,20.53
2022-08-10T16:10:53.636Z,20.39
2022-08-10T16:13:50.644Z,19.63
2022-08-10T16:16:07.294Z,20.32
2022-08-10T16:18:34.027Z,20.83
2022-08-10T16:21:00.515Z,19.67
2022-08-10T16:23:26.920Z,20.37
2022-08-10T16:25:59.360Z,19.80
2022-08-10T16:28:29.729Z,20.37
2022-08-10T16:30:56.160Z,20.17
2022-08-10T16:33:22.627Z,20.32
2022-08-10T16:35:49.988Z,20.39
2022-08-10T16:38:16.647Z,20.32
2022-08-10T16:40:43.081Z,20.15
2022-08-10T16:43:09.522Z,20.89
2022-08-10T16:45:36.150Z,20.42
2022-08-10T16:48:02.580Z,20.11
2022-08-10T16:50:29.100Z,21.11
2022-08-10T16:52:56.104Z,20.98
2022-08-10T16:55:24.436Z,20.69
2022-08-10T16:58:09.377Z,23.46
2022-08-10T17:00:35.800Z,23.30
2022-08-10T17:03:02.216Z,22.65
2022-08-10T17:06:11.605Z,21.73
2022-08-10T17:08:35.016Z,21.41
2022-08-10T17:11:01.787Z,21.53
2022-08-10T17:13:28.189Z,21.46
2022-08-10T17:15:54.651Z,21.58
2022-08-10T17:18:21.469Z,21.81
2022-08-10T17:20:48.069Z,22.06
2022-08-10T17:23:14.614Z,21.95
2022-08-10T17:25:48.902Z,21.36
2022-08-10T17:28:35.335Z,21.48
2022-08-10T17:31:02.934Z,21.50
2022-08-10T17:33:29.368Z,21.95
2022-08-10T17:35:55.784Z,22.57
2022-08-10T17:38:22.223Z,21.84
2022-08-10T17:40:48.573Z,23.49
2022-08-10T17:43:58.302Z,22.99
2022-08-10T17:46:03.684Z,23.35
2022-08-10T17:48:30.198Z,22.82
2022-08-10T17:50:56.619Z,23.28
2022-08-10T17:53:23.216Z,22.79
2022-08-10T17:55:49.681Z,22.93
2022-08-10T17:58:16.064Z,23.75
2022-08-10T18:00:42.538Z,23.04
2022-08-10T18:03:09.171Z,23.28
2022-08-10T18:05:42.268Z,23.03
2022-08-10T18:08:08.661Z,23.97
2022-08-10T18:10:35.130Z,23.03
2022-08-10T18:13:01.693Z,23.05
2022-08-10T18:15:28.116Z,23.47
2022-08-10T18:17:59.220Z,23.75
2022-08-10T18:20:28.091Z,23.23
2022-08-10T18:22:54.944Z,23.82
2022-08-10T18:25:21.322Z,22.99
2022-08-10T18:28:04.326Z,23.35
2022-08-10T18:30:35.959Z,23.53
2022-08-10T18:33:03.596Z,23.72
2022-08-10T18:35:34.799Z,23.24
2022-08-10T18:38:01.708Z,23.34
2022-08-10T18:40:35.692Z,22.95
2022-08-10T18:43:03.195Z,23.13
2022-08-10T18:45:29.736Z,23.97
2022-08-10T18:47:59.721Z,23.40
2022-08-10T18:50:26.437Z,23.53
2022-08-10T18:52:53.054Z,23.64
2022-08-10T18:55:22.899Z,24.20
2022-08-10T18:57:51.240Z,24.34
2022-08-10T19:00:19.830Z,24.05
2022-08-10T19:02:46.220Z,24.27
2022-08-10T19:05:30.230Z,24.18
2022-08-10T19:07:57.361Z,25.30
2022-08-10T19:10:23.799Z,24.86
2022-08-10T19:12:50.308Z,25.11
2022-08-10T19:15:17.084Z,25.47
2022-08-10T19:18:03.278Z,26.39
2022-08-10T19:20:30.727Z,25.87
2022-08-10T19:23:01.317Z,25.53
2022-08-10T19:26:40.838Z,25.22
2022-08-10T19:28:18.599Z,25.38
2022-08-10T19:30:45.208Z,25.14
2022-08-10T19:33:12.182Z,24.90
2022-08-10T19:36:04.459Z,25.46
2022-08-10T19:38:33.194Z,25.73
2022-08-10T19:41:00.181Z,26.64
2022-08-10T19:43:59.869Z,26.85
2022-08-10T19:46:27.595Z,26.50
2022-08-10T19:48:56.122Z,26.26
2022-08-10T19:51:22.947Z,26.31
2022-08-10T19:53:49.450Z,26.25
2022-08-10T19:56:32.943Z,26.57
2022-08-10T19:58:59.881Z,26.66
2022-08-10T20:01:26.600Z,26.36
2022-08-10T20:04:13.234Z,26.08
2022-08-10T20:06:39.945Z,26.29
2022-08-10T20:09:06.412Z,27.41
2022-08-10T20:11:46.013Z,27.44
2022-08-10T20:14:22.177Z,27.08
2022-08-10T20:16:49.684Z,26.63
2022-08-10T20:19:16.392Z,26.73
2022-08-10T20:21:43.249Z,26.18
2022-08-10T20:24:09.820Z,26.02
2022-08-10T20:26:36.381Z,25.46
2022-08-10T20:29:02.951Z,26.29
2022-08-10T20:31:29.550Z,25.83
2022-08-10T20:34:00.737Z,25.95
2022-08-10T20:36:28.013Z,26.33
2022-08-10T20:38:54.562Z,26.22
2022-08-10T20:41:21.360Z,25.88
2022-08-10T20:43:47.847Z,26.60
2022-08-10T20:46:14.485Z,27.70
2022-08-10T20:48:41.138Z,27.64
2022-08-10T20:51:07.662Z,26.88
2022-08-10T20:53:34.234Z,26.67
2022-08-10T20:56:00.853Z,26.98
2022-08-10T20:58:27.522Z,26.72
2022-08-10T21:00:55.027Z,26.47
2022-08-10T21:03:31.672Z,26.50
2022-08-10T21:05:59.762Z,26.25
2022-08-10T21:08:26.478Z,26.46
2022-08-10T21:10:52.979Z,26.22
2022-08-10T21:13:19.793Z,26.04
2022-08-10T21:15:51.800Z,26.05
2022-08-10T21:18:22.012Z,26.38
2022-08-10T21:20:54.181Z,26.78
2022-08-10T21:23:20.950Z,26.09
2022-08-10T21:25:47.810Z,26.82
2022-08-10T21:28:14.636Z,26.56
2022-08-10T21:30:41.419Z,27.97
2022-08-10T21:33:07.977Z,26.93
2022-08-10T21:35:37.596Z,27.55
2022-08-10T21:38:04.794Z,27.38
2022-08-10T21:40:35.141Z,26.97
2022-08-10T21:43:02.695Z,27.74
2022-08-10T21:45:54.887Z,27.51
2022-08-10T21:48:17.149Z,27.16
2022-08-10T21:50:45.837Z,27.43
2022-08-10T21:53:12.873Z,27.26
2022-08-10T21:55:55.871Z,27.02
2022-08-10T21:58:29.100Z,26.68
2022-08-10T22:03:48.775Z,27.37
2022-08-10T22:06:20.440Z,28.13
2022-08-10T22:08:46.987Z,27.46
2022-08-10T22:11:13.655Z,26.98
2022-08-10T22:13:40.005Z,27.31
2022-08-10T22:16:11.607Z,27.74
2022-08-10T22:18:45.258Z,27.27
2022-08-10T22:21:27.085Z,27.61
2022-08-10T22:23:54.020Z,27.45
2022-08-10T22:26:21.084Z,27.59
2022-08-10T22:28:48.795Z,27.85
2022-08-10T22:34:05.603Z,27.61
2022-08-10T22:36:32.057Z,27.76
2022-08-10T22:38:58.472Z,27.73
2022-08-10T22:41:25.479Z,27.88
2022-08-10T22:43:51.911Z,27.96
2022-08-10T22:46:18.228Z,27.40
2022-08-10T22:48:44.802Z,27.76
2022-08-10T22:51:11.148Z,28.03
2022-08-10T22:53:37.619Z,27.93
2022-08-10T22:56:04.185Z,27.97
2022-08-10T22:58:30.558Z,28.28
2022-08-10T23:00:56.984Z,28.50
2022-08-10T23:03:23.626Z,28.28
2022-08-10T23:05:54.076Z,28.10
2022-08-10T23:08:29.961Z,27.86
2022-08-10T23:10:57.578Z,27.99
2022-08-10T23:13:36.481Z,28.52
2022-08-10T23:16:03.368Z,28.32
2022-08-10T23:18:29.750Z,28.58
2022-08-10T23:20:56.099Z,28.95
2022-08-10T23:23:24.073Z,28.76
2022-08-10T23:25:57.348Z,28.34
2022-08-10T23:28:38.229Z,28.76
2022-08-10T23:31:06.087Z,28.36
2022-08-10T23:33:37.980Z,28.59
2022-08-10T23:36:33.925Z,28.15
2022-08-10T23:39:23.856Z,28.71
2022-08-10T23:41:37.727Z,29.06
2022-08-10T23:44:04.607Z,29.31
2022-08-10T23:46:31.019Z,29.20
2022-08-10T23:48:57.386Z,29.33
2022-08-10T23:51:23.975Z,28.57
2022-08-10T23:54:05.361Z,29.57
2022-08-10T23:56:32.336Z,30.15
2022-08-10T23:58:58.655Z,29.34
